sensor_id;sensor_type;location;lat;lon;timestamp;P1;durP1;ratioP1;P2;durP2;ratioP2
12181;SDS011;6154;51.550;12.138;2022-11-20T00:01:03;7.50;;;4.47;;
12181;SDS011;6154;51.550;12.138;2022-11-20T00:03:51;12.10;;;5.43;;
12181;SDS011;6154;51.550;12.138;2022-11-20T00:06:39;12.50;;;5.20;;
12181;SDS011;6154;51.550;12.138;2022-11-20T00:09:26;7.50;;;5.27;;
12181;SDS011;6154;51.550;12.138;2022-11-20T00:12:13;7.57;;;4.37;;
12181;SDS011;6154;51.550;12.138;2022-11-20T00:15:01;8.00;;;4.63;;
12181;SDS011;6154;51.550;12.138;2022-11-20T00:17:49;10.33;;;4.33;;
12181;SDS011;6154;51.550;12.138;2022-11-20T00:20:36;11.17;;;6.00;;
12181;SDS011;6154;51.550;12.138;2022-11-20T00:23:23;7.20;;;4.50;;
12181;SDS011;6154;51.550;12.138;2022-11-20T00:26:12;7.93;;;4.77;;
12181;SDS011;6154;51.550;12.138;2022-11-20T00:29:00;7.63;;;4.60;;
12181;SDS011;6154;51.550;12.138;2022-11-20T00:31:48;5.73;;;3.83;;
12181;SDS011;6154;51.550;12.138;2022-11-20T00:34:36;10.07;;;4.43;;
12181;SDS011;6154;51.550;12.138;2022-11-20T00:37:23;9.20;;;4.43;;
12181;SDS011;6154;51.550;12.138;2022-11-20T00:40:11;7.60;;;4.00;;
12181;SDS011;6154;51.550;12.138;2022-11-20T00:42:59;7.97;;;4.87;;
12181;SDS011;6154;51.550;12.138;2022-11-20T00:45:45;8.00;;;4.73;;
12181;SDS011;6154;51.550;12.138;2022-11-20T00:48:33;6.00;;;4.27;;
12181;SDS011;6154;51.550;12.138;2022-11-20T00:51:21;10.13;;;5.60;;
12181;SDS011;6154;51.550;12.138;2022-11-20T00:54:10;9.07;;;4.57;;
12181;SDS011;6154;51.550;12.138;2022-11-20T00:56:57;8.37;;;3.87;;
12181;SDS011;6154;51.550;12.138;2022-11-20T00:59:44;11.03;;;5.70;;
12181;SDS011;6154;51.550;12.138;2022-11-20T01:02:31;10.90;;;6.43;;
12181;SDS011;6154;51.550;12.138;2022-11-20T01:05:19;8.57;;;4.63;;
12181;SDS011;6154;51.550;12.138;2022-11-20T01:08:09;9.13;;;4.87;;
12181;SDS011;6154;51.550;12.138;2022-11-20T01:11:00;9.03;;;4.80;;
12181;SDS011;6154;51.550;12.138;2022-11-20T01:13:49;8.97;;;4.73;;
12181;SDS011;6154;51.550;12.138;2022-11-20T01:16:39;16.30;;;4.90;;
12181;SDS011;6154;51.550;12.138;2022-11-20T01:19:27;9.37;;;5.17;;
12181;SDS011;6154;51.550;12.138;2022-11-20T01:22:14;11.20;;;5.17;;
12181;SDS011;6154;51.550;12.138;2022-11-20T01:25:03;6.40;;;4.73;;
12181;SDS011;6154;51.550;12.138;2022-11-20T01:27:51;8.30;;;5.13;;
12181;SDS011;6154;51.550;12.138;2022-11-20T01:30:38;7.23;;;4.90;;
12181;SDS011;6154;51.550;12.138;2022-11-20T01:33:26;10.00;;;5.17;;
12181;SDS011;6154;51.550;12.138;2022-11-20T01:36:13;9.23;;;5.20;;
12181;SDS011;6154;51.550;12.138;2022-11-20T01:39:02;8.03;;;4.17;;
12181;SDS011;6154;51.550;12.138;2022-11-20T01:41:53;10.13;;;5.40;;
12181;SDS011;6154;51.550;12.138;2022-11-20T01:49:56;8.27;;;4.13;;
12181;SDS011;6154;51.550;12.138;2022-11-20T01:52:49;11.03;;;4.27;;
12181;SDS011;6154;51.550;12.138;2022-11-20T01:55:39;10.87;;;5.23;;
12181;SDS011;6154;51.550;12.138;2022-11-20T01:58:33;6.90;;;4.53;;
12181;SDS011;6154;51.550;12.138;2022-11-20T02:01:22;8.77;;;4.37;;
12181;SDS011;6154;51.550;12.138;2022-11-20T02:04:10;6.83;;;4.83;;
12181;SDS011;6154;51.550;12.138;2022-11-20T02:07:00;7.67;;;5.07;;
12181;SDS011;6154;51.550;12.138;2022-11-20T02:09:48;9.13;;;4.83;;
12181;SDS011;6154;51.550;12.138;2022-11-20T02:12:40;8.90;;;5.27;;
12181;SDS011;6154;51.550;12.138;2022-11-20T05:14:19;10.73;;;6.33;;
12181;SDS011;6154;51.550;12.138;2022-11-20T06:48:21;17.73;;;6.30;;
12181;SDS011;6154;51.550;12.138;2022-11-20T06:51:09;12.93;;;6.37;;
12181;SDS011;6154;51.550;12.138;2022-11-20T06:53:56;13.83;;;7.10;;
12181;SDS011;6154;51.550;12.138;2022-11-20T06:56:46;14.30;;;7.80;;
12181;SDS011;6154;51.550;12.138;2022-11-20T06:59:33;13.40;;;7.23;;
12181;SDS011;6154;51.550;12.138;2022-11-20T07:02:21;14.53;;;7.20;;
12181;SDS011;6154;51.550;12.138;2022-11-20T07:05:08;12.03;;;6.77;;
12181;SDS011;6154;51.550;12.138;2022-11-20T07:07:55;10.17;;;6.73;;
12181;SDS011;6154;51.550;12.138;2022-11-20T07:10:42;12.33;;;6.33;;
12181;SDS011;6154;51.550;12.138;2022-11-20T07:13:29;11.07;;;6.30;;
12181;SDS011;6154;51.550;12.138;2022-11-20T07:16:17;10.23;;;5.50;;
12181;SDS011;6154;51.550;12.138;2022-11-20T07:19:06;12.13;;;4.67;;
12181;SDS011;6154;51.550;12.138;2022-11-20T07:21:53;9.07;;;4.33;;
12181;SDS011;6154;51.550;12.138;2022-11-20T07:24:40;12.63;;;5.87;;
12181;SDS011;6154;51.550;12.138;2022-11-20T07:27:31;6.50;;;3.67;;
12181;SDS011;6154;51.550;12.138;2022-11-20T07:30:17;8.40;;;5.97;;
12181;SDS011;6154;51.550;12.138;2022-11-20T07:33:05;5.37;;;3.93;;
12181;SDS011;6154;51.550;12.138;2022-11-20T07:35:53;11.10;;;6.07;;
12181;SDS011;6154;51.550;12.138;2022-11-20T07:38:40;7.37;;;3.83;;
12181;SDS011;6154;51.550;12.138;2022-11-20T07:41:27;10.03;;;4.97;;
12181;SDS011;6154;51.550;12.138;2022-11-20T07:44:15;5.90;;;3.90;;
12181;SDS011;6154;51.550;12.138;2022-11-20T07:47:02;14.90;;;5.40;;
12181;SDS011;6154;51.550;12.138;2022-11-20T07:49:49;7.57;;;5.00;;
12181;SDS011;6154;51.550;12.138;2022-11-20T07:52:37;7.60;;;3.90;;
12181;SDS011;6154;51.550;12.138;2022-11-20T07:55:25;11.13;;;3.97;;
12181;SDS011;6154;51.550;12.138;2022-11-20T07:58:12;8.47;;;4.70;;
12181;SDS011;6154;51.550;12.138;2022-11-20T08:01:02;9.70;;;4.80;;
12181;SDS011;6154;51.550;12.138;2022-11-20T08:03:49;8.80;;;5.33;;
12181;SDS011;6154;51.550;12.138;2022-11-20T08:06:36;10.50;;;5.77;;
12181;SDS011;6154;51.550;12.138;2022-11-20T08:09:25;12.43;;;5.57;;
12181;SDS011;6154;51.550;12.138;2022-11-20T08:12:15;9.03;;;5.13;;
12181;SDS011;6154;51.550;12.138;2022-11-20T08:15:31;12.40;;;4.78;;
12181;SDS011;6154;51.550;12.138;2022-11-20T08:18:19;8.87;;;4.33;;
12181;SDS011;6154;51.550;12.138;2022-11-20T08:21:21;8.53;;;4.60;;
12181;SDS011;6154;51.550;12.138;2022-11-20T08:24:09;9.80;;;5.33;;
12181;SDS011;6154;51.550;12.138;2022-11-20T08:26:58;11.67;;;6.43;;
12181;SDS011;6154;51.550;12.138;2022-11-20T08:29:49;6.07;;;4.27;;
12181;SDS011;6154;51.550;12.138;2022-11-20T08:32:36;10.30;;;5.20;;
12181;SDS011;6154;51.550;12.138;2022-11-20T08:35:23;11.93;;;5.65;;
12181;SDS011;6154;51.550;12.138;2022-11-20T08:38:10;7.65;;;4.80;;
12181;SDS011;6154;51.550;12.138;2022-11-20T08:40:57;8.45;;;4.90;;
12181;SDS011;6154;51.550;12.138;2022-11-20T08:44:03;8.25;;;4.32;;
12181;SDS011;6154;51.550;12.138;2022-11-20T08:46:55;8.48;;;4.28;;
12181;SDS011;6154;51.550;12.138;2022-11-20T08:49:42;7.87;;;4.32;;
12181;SDS011;6154;51.550;12.138;2022-11-20T08:52:29;9.02;;;5.22;;
12181;SDS011;6154;51.550;12.138;2022-11-20T08:55:20;15.75;;;8.35;;
12181;SDS011;6154;51.550;12.138;2022-11-20T08:58:07;11.20;;;5.87;;
12181;SDS011;6154;51.550;12.138;2022-11-20T09:00:56;11.55;;;6.55;;
12181;SDS011;6154;51.550;12.138;2022-11-20T09:03:43;17.87;;;6.37;;
12181;SDS011;6154;51.550;12.138;2022-11-20T09:06:31;11.27;;;5.32;;
12181;SDS011;6154;51.550;12.138;2022-11-20T09:09:18;9.75;;;5.55;;
12181;SDS011;6154;51.550;12.138;2022-11-20T09:12:06;15.77;;;6.97;;
12181;SDS011;6154;51.550;12.138;2022-11-20T09:14:53;12.48;;;6.40;;
12181;SDS011;6154;51.550;12.138;2022-11-20T09:17:41;10.40;;;6.07;;
12181;SDS011;6154;51.550;12.138;2022-11-20T09:20:28;11.02;;;6.45;;
12181;SDS011;6154;51.550;12.138;2022-11-20T09:23:16;13.75;;;7.12;;
12181;SDS011;6154;51.550;12.138;2022-11-20T09:26:04;11.15;;;6.47;;
12181;SDS011;6154;51.550;12.138;2022-11-20T09:28:52;13.23;;;7.03;;
12181;SDS011;6154;51.550;12.138;2022-11-20T09:31:42;13.93;;;7.15;;
12181;SDS011;6154;51.550;12.138;2022-11-20T09:34:31;15.55;;;7.60;;
12181;SDS011;6154;51.550;12.138;2022-11-20T09:37:18;18.27;;;7.50;;
12181;SDS011;6154;51.550;12.138;2022-11-20T09:40:06;11.18;;;6.47;;
12181;SDS011;6154;51.550;12.138;2022-11-20T09:43:07;15.07;;;8.32;;
12181;SDS011;6154;51.550;12.138;2022-11-20T09:46:04;15.13;;;7.05;;
12181;SDS011;6154;51.550;12.138;2022-11-20T09:49:01;16.02;;;8.27;;
12181;SDS011;6154;51.550;12.138;2022-11-20T09:52:09;13.27;;;8.55;;
12181;SDS011;6154;51.550;12.138;2022-11-20T09:55:06;14.35;;;7.70;;
12181;SDS011;6154;51.550;12.138;2022-11-20T09:57:56;11.60;;;6.65;;
12181;SDS011;6154;51.550;12.138;2022-11-20T10:00:45;13.73;;;7.15;;
12181;SDS011;6154;51.550;12.138;2022-11-20T10:03:37;27.35;;;14.25;;
12181;SDS011;6154;51.550;12.138;2022-11-20T10:06:28;12.00;;;6.82;;
12181;SDS011;6154;51.550;12.138;2022-11-20T10:09:20;13.45;;;6.93;;
12181;SDS011;6154;51.550;12.138;2022-11-20T10:12:13;14.93;;;7.93;;
12181;SDS011;6154;51.550;12.138;2022-11-20T10:15:10;10.68;;;6.50;;
12181;SDS011;6154;51.550;12.138;2022-11-20T10:18:08;14.70;;;7.62;;
12181;SDS011;6154;51.550;12.138;2022-11-20T10:21:03;13.77;;;6.87;;
12181;SDS011;6154;51.550;12.138;2022-11-20T10:24:02;10.60;;;6.53;;
12181;SDS011;6154;51.550;12.138;2022-11-20T10:27:20;13.55;;;7.03;;
12181;SDS011;6154;51.550;12.138;2022-11-20T10:30:20;17.00;;;8.05;;
12181;SDS011;6154;51.550;12.138;2022-11-20T10:33:13;12.18;;;7.28;;
12181;SDS011;6154;51.550;12.138;2022-11-20T10:36:05;19.17;;;9.80;;
12181;SDS011;6154;51.550;12.138;2022-11-20T10:39:01;12.82;;;7.37;;
12181;SDS011;6154;51.550;12.138;2022-11-20T10:41:52;10.77;;;6.32;;
12181;SDS011;6154;51.550;12.138;2022-11-20T10:44:41;14.27;;;7.12;;
12181;SDS011;6154;51.550;12.138;2022-11-20T10:47:51;13.20;;;7.62;;
12181;SDS011;6154;51.550;12.138;2022-11-20T10:50:43;12.65;;;7.18;;
12181;SDS011;6154;51.550;12.138;2022-11-20T10:53:42;13.90;;;7.55;;
12181;SDS011;6154;51.550;12.138;2022-11-20T10:56:45;14.95;;;7.28;;
12181;SDS011;6154;51.550;12.138;2022-11-20T11:02:52;12.50;;;7.12;;
12181;SDS011;6154;51.550;12.138;2022-11-20T11:05:41;13.27;;;6.53;;
12181;SDS011;6154;51.550;12.138;2022-11-20T11:08:36;12.20;;;6.47;;
12181;SDS011;6154;51.550;12.138;2022-11-20T11:11:26;11.80;;;6.10;;
12181;SDS011;6154;51.550;12.138;2022-11-20T11:14:15;15.80;;;6.78;;
12181;SDS011;6154;51.550;12.138;2022-11-20T11:17:03;11.05;;;5.68;;
12181;SDS011;6154;51.550;12.138;2022-11-20T11:20:01;14.60;;;6.78;;
12181;SDS011;6154;51.550;12.138;2022-11-20T11:22:51;15.18;;;6.75;;
12181;SDS011;6154;51.550;12.138;2022-11-20T11:25:40;11.30;;;6.00;;
12181;SDS011;6154;51.550;12.138;2022-11-20T11:28:27;12.32;;;5.87;;
12181;SDS011;6154;51.550;12.138;2022-11-20T11:31:21;10.00;;;5.50;;
12181;SDS011;6154;51.550;12.138;2022-11-20T11:34:12;11.15;;;5.60;;
12181;SDS011;6154;51.550;12.138;2022-11-20T11:37:00;12.82;;;6.28;;
12181;SDS011;6154;51.550;12.138;2022-11-20T11:39:49;11.73;;;5.93;;
12181;SDS011;6154;51.550;12.138;2022-11-20T11:42:57;11.57;;;6.03;;
12181;SDS011;6154;51.550;12.138;2022-11-20T11:45:50;12.13;;;6.37;;
12181;SDS011;6154;51.550;12.138;2022-11-20T11:48:38;11.73;;;6.15;;
12181;SDS011;6154;51.550;12.138;2022-11-20T11:51:28;11.32;;;6.18;;
12181;SDS011;6154;51.550;12.138;2022-11-20T11:54:20;21.55;;;12.37;;
12181;SDS011;6154;51.550;12.138;2022-11-20T11:57:14;17.10;;;8.07;;
12181;SDS011;6154;51.550;12.138;2022-11-20T12:00:11;10.85;;;5.82;;
12181;SDS011;6154;51.550;12.138;2022-11-20T12:03:03;12.57;;;7.55;;
12181;SDS011;6154;51.550;12.138;2022-11-20T12:05:57;10.20;;;6.03;;
12181;SDS011;6154;51.550;12.138;2022-11-20T12:08:48;11.32;;;5.40;;
12181;SDS011;6154;51.550;12.138;2022-11-20T12:11:48;8.57;;;5.80;;
12181;SDS011;6154;51.550;12.138;2022-11-20T12:14:40;9.55;;;5.93;;
12181;SDS011;6154;51.550;12.138;2022-11-20T12:17:29;9.38;;;5.68;;
12181;SDS011;6154;51.550;12.138;2022-11-20T12:20:17;9.20;;;5.45;;
12181;SDS011;6154;51.550;12.138;2022-11-20T12:23:08;11.52;;;6.85;;
12181;SDS011;6154;51.550;12.138;2022-11-20T12:26:03;12.35;;;6.20;;
12181;SDS011;6154;51.550;12.138;2022-11-20T12:29:01;14.57;;;7.65;;
12181;SDS011;6154;51.550;12.138;2022-11-20T12:32:02;10.15;;;6.45;;
12181;SDS011;6154;51.550;12.138;2022-11-20T12:35:05;13.13;;;7.50;;
12181;SDS011;6154;51.550;12.138;2022-11-20T12:41:40;11.48;;;5.55;;
12181;SDS011;6154;51.550;12.138;2022-11-20T12:44:58;10.73;;;6.03;;
12181;SDS011;6154;51.550;12.138;2022-11-20T12:48:07;12.10;;;5.93;;
12181;SDS011;6154;51.550;12.138;2022-11-20T12:51:08;10.00;;;5.87;;
12181;SDS011;6154;51.550;12.138;2022-11-20T12:54:11;8.90;;;5.85;;
12181;SDS011;6154;51.550;12.138;2022-11-20T12:57:18;11.85;;;5.90;;
12181;SDS011;6154;51.550;12.138;2022-11-20T13:00:12;11.70;;;4.90;;
12181;SDS011;6154;51.550;12.138;2022-11-20T13:06:19;10.93;;;5.95;;
12181;SDS011;6154;51.550;12.138;2022-11-20T13:09:06;9.85;;;5.87;;
12181;SDS011;6154;51.550;12.138;2022-11-20T13:12:01;9.90;;;6.12;;
12181;SDS011;6154;51.550;12.138;2022-11-20T13:14:55;11.05;;;5.93;;
12181;SDS011;6154;51.550;12.138;2022-11-20T13:17:50;10.43;;;5.20;;
12181;SDS011;6154;51.550;12.138;2022-11-20T13:20:46;9.98;;;5.40;;
12181;SDS011;6154;51.550;12.138;2022-11-20T13:23:35;8.50;;;4.55;;
12181;SDS011;6154;51.550;12.138;2022-11-20T13:26:22;8.55;;;5.18;;
12181;SDS011;6154;51.550;12.138;2022-11-20T13:29:11;11.40;;;5.10;;
12181;SDS011;6154;51.550;12.138;2022-11-20T13:32:05;10.68;;;4.95;;
12181;SDS011;6154;51.550;12.138;2022-11-20T13:34:53;9.80;;;6.40;;
12181;SDS011;6154;51.550;12.138;2022-11-20T13:37:41;8.80;;;5.75;;
12181;SDS011;6154;51.550;12.138;2022-11-20T13:40:30;8.43;;;5.20;;
12181;SDS011;6154;51.550;12.138;2022-11-20T13:43:20;10.13;;;5.40;;
12181;SDS011;6154;51.550;12.138;2022-11-20T13:46:09;9.88;;;5.43;;
12181;SDS011;6154;51.550;12.138;2022-11-20T13:48:58;10.50;;;5.37;;
12181;SDS011;6154;51.550;12.138;2022-11-20T13:51:55;12.77;;;6.55;;
12181;SDS011;6154;51.550;12.138;2022-11-20T13:54:54;10.52;;;6.28;;
12181;SDS011;6154;51.550;12.138;2022-11-20T13:57:57;7.87;;;4.97;;
12181;SDS011;6154;51.550;12.138;2022-11-20T14:00:55;8.38;;;4.62;;
12181;SDS011;6154;51.550;12.138;2022-11-20T14:03:47;11.52;;;5.50;;
12181;SDS011;6154;51.550;12.138;2022-11-20T14:06:52;9.73;;;5.45;;
12181;SDS011;6154;51.550;12.138;2022-11-20T14:09:48;9.13;;;5.45;;
12181;SDS011;6154;51.550;12.138;2022-11-20T14:12:37;7.55;;;5.15;;
12181;SDS011;6154;51.550;12.138;2022-11-20T14:15:26;11.15;;;6.22;;
12181;SDS011;6154;51.550;12.138;2022-11-20T14:18:19;10.43;;;5.30;;
12181;SDS011;6154;51.550;12.138;2022-11-20T14:21:08;8.02;;;4.32;;
12181;SDS011;6154;51.550;12.138;2022-11-20T14:24:04;11.85;;;5.50;;
12181;SDS011;6154;51.550;12.138;2022-11-20T14:26:53;8.65;;;5.15;;
12181;SDS011;6154;51.550;12.138;2022-11-20T14:29:40;9.80;;;5.30;;
12181;SDS011;6154;51.550;12.138;2022-11-20T14:32:30;10.20;;;5.97;;
12181;SDS011;6154;51.550;12.138;2022-11-20T14:35:18;10.85;;;6.28;;
12181;SDS011;6154;51.550;12.138;2022-11-20T14:38:10;12.82;;;6.07;;
12181;SDS011;6154;51.550;12.138;2022-11-20T14:41:14;12.65;;;6.10;;
12181;SDS011;6154;51.550;12.138;2022-11-20T14:44:04;11.85;;;6.85;;
12181;SDS011;6154;51.550;12.138;2022-11-20T14:46:54;12.48;;;6.53;;
12181;SDS011;6154;51.550;12.138;2022-11-20T14:50:01;13.45;;;7.62;;
12181;SDS011;6154;51.550;12.138;2022-11-20T14:52:55;9.98;;;6.35;;
12181;SDS011;6154;51.550;12.138;2022-11-20T14:55:43;19.60;;;10.65;;
12181;SDS011;6154;51.550;12.138;2022-11-20T14:58:33;17.12;;;9.02;;
12181;SDS011;6154;51.550;12.138;2022-11-20T15:01:24;12.37;;;8.30;;
12181;SDS011;6154;51.550;12.138;2022-11-20T15:04:12;10.35;;;6.22;;
12181;SDS011;6154;51.550;12.138;2022-11-20T15:07:00;9.82;;;5.12;;
12181;SDS011;6154;51.550;12.138;2022-11-20T15:09:46;12.77;;;5.32;;
12181;SDS011;6154;51.550;12.138;2022-11-20T15:12:34;6.75;;;4.57;;
12181;SDS011;6154;51.550;12.138;2022-11-20T15:15:27;7.70;;;4.00;;
12181;SDS011;6154;51.550;12.138;2022-11-20T15:18:19;7.15;;;4.15;;
12181;SDS011;6154;51.550;12.138;2022-11-20T15:21:09;6.35;;;4.43;;
12181;SDS011;6154;51.550;12.138;2022-11-20T15:23:58;8.50;;;5.43;;
12181;SDS011;6154;51.550;12.138;2022-11-20T15:26:46;8.15;;;4.62;;
12181;SDS011;6154;51.550;12.138;2022-11-20T15:29:33;6.85;;;4.07;;
12181;SDS011;6154;51.550;12.138;2022-11-20T15:32:21;8.30;;;4.22;;
12181;SDS011;6154;51.550;12.138;2022-11-20T15:35:09;8.00;;;4.28;;
12181;SDS011;6154;51.550;12.138;2022-11-20T15:37:57;9.25;;;4.60;;
12181;SDS011;6154;51.550;12.138;2022-11-20T15:40:45;10.15;;;4.50;;
12181;SDS011;6154;51.550;12.138;2022-11-20T15:43:32;8.77;;;4.28;;
12181;SDS011;6154;51.550;12.138;2022-11-20T15:46:20;8.00;;;4.70;;
12181;SDS011;6154;51.550;12.138;2022-11-20T15:49:14;8.15;;;4.60;;
12181;SDS011;6154;51.550;12.138;2022-11-20T15:52:03;11.00;;;5.05;;
12181;SDS011;6154;51.550;12.138;2022-11-20T15:54:51;11.82;;;6.20;;
12181;SDS011;6154;51.550;12.138;2022-11-20T15:57:38;8.85;;;4.70;;
12181;SDS011;6154;51.550;12.138;2022-11-20T16:00:25;9.10;;;5.22;;
12181;SDS011;6154;51.550;12.138;2022-11-20T16:03:12;7.30;;;4.45;;
12181;SDS011;6154;51.550;12.138;2022-11-20T16:06:01;10.38;;;4.78;;
12181;SDS011;6154;51.550;12.138;2022-11-20T16:08:48;10.05;;;5.65;;
12181;SDS011;6154;51.550;12.138;2022-11-20T16:11:35;6.62;;;4.25;;
12181;SDS011;6154;51.550;12.138;2022-11-20T16:14:22;8.57;;;4.00;;
12181;SDS011;6154;51.550;12.138;2022-11-20T16:17:27;10.20;;;5.57;;
12181;SDS011;6154;51.550;12.138;2022-11-20T16:20:28;8.27;;;5.00;;
12181;SDS011;6154;51.550;12.138;2022-11-20T16:23:17;9.38;;;4.75;;
12181;SDS011;6154;51.550;12.138;2022-11-20T16:26:08;7.95;;;3.92;;
12181;SDS011;6154;51.550;12.138;2022-11-20T16:28:58;9.63;;;4.72;;
12181;SDS011;6154;51.550;12.138;2022-11-20T16:31:46;8.75;;;4.87;;
12181;SDS011;6154;51.550;12.138;2022-11-20T16:34:33;12.77;;;5.45;;
12181;SDS011;6154;51.550;12.138;2022-11-20T16:37:20;14.07;;;5.43;;
12181;SDS011;6154;51.550;12.138;2022-11-20T16:40:09;8.65;;;4.53;;
12181;SDS011;6154;51.550;12.138;2022-11-20T16:42:58;7.97;;;4.20;;
12181;SDS011;6154;51.550;12.138;2022-11-20T16:45:55;7.47;;;4.45;;
12181;SDS011;6154;51.550;12.138;2022-11-20T16:48:42;7.45;;;4.40;;
12181;SDS011;6154;51.550;12.138;2022-11-20T16:51:30;5.40;;;4.15;;
12181;SDS011;6154;51.550;12.138;2022-11-20T16:54:20;9.25;;;5.32;;
12181;SDS011;6154;51.550;12.138;2022-11-20T16:57:09;12.63;;;6.60;;
12181;SDS011;6154;51.550;12.138;2022-11-20T16:59:56;10.93;;;6.07;;
12181;SDS011;6154;51.550;12.138;2022-11-20T17:02:47;8.88;;;5.00;;
12181;SDS011;6154;51.550;12.138;2022-11-20T17:05:34;7.12;;;4.53;;
12181;SDS011;6154;51.550;12.138;2022-11-20T17:08:21;7.75;;;4.00;;
12181;SDS011;6154;51.550;12.138;2022-11-20T17:11:11;7.40;;;4.25;;
12181;SDS011;6154;51.550;12.138;2022-11-20T17:14:00;6.07;;;3.90;;
12181;SDS011;6154;51.550;12.138;2022-11-20T17:16:48;10.60;;;5.10;;
12181;SDS011;6154;51.550;12.138;2022-11-20T17:19:35;9.85;;;5.20;;
12181;SDS011;6154;51.550;12.138;2022-11-20T17:22:22;6.20;;;3.67;;
12181;SDS011;6154;51.550;12.138;2022-11-20T17:25:09;6.40;;;3.95;;
12181;SDS011;6154;51.550;12.138;2022-11-20T17:27:57;8.35;;;4.18;;
12181;SDS011;6154;51.550;12.138;2022-11-20T17:30:45;8.20;;;4.50;;
12181;SDS011;6154;51.550;12.138;2022-11-20T17:33:32;10.02;;;4.65;;
12181;SDS011;6154;51.550;12.138;2022-11-20T17:36:21;8.40;;;4.75;;
12181;SDS011;6154;51.550;12.138;2022-11-20T17:39:08;7.90;;;4.35;;
12181;SDS011;6154;51.550;12.138;2022-11-20T17:41:55;8.25;;;4.00;;
12181;SDS011;6154;51.550;12.138;2022-11-20T17:44:56;7.57;;;3.33;;
12181;SDS011;6154;51.550;12.138;2022-11-20T17:47:45;7.47;;;4.87;;
12181;SDS011;6154;51.550;12.138;2022-11-20T17:50:32;8.55;;;4.95;;
12181;SDS011;6154;51.550;12.138;2022-11-20T17:53:19;11.00;;;5.75;;
12181;SDS011;6154;51.550;12.138;2022-11-20T17:56:07;11.60;;;5.68;;
12181;SDS011;6154;51.550;12.138;2022-11-20T17:59:12;14.20;;;6.22;;
12181;SDS011;6154;51.550;12.138;2022-11-20T18:01:59;12.15;;;5.57;;
12181;SDS011;6154;51.550;12.138;2022-11-20T18:04:50;10.43;;;4.78;;
12181;SDS011;6154;51.550;12.138;2022-11-20T18:07:37;10.13;;;5.32;;
12181;SDS011;6154;51.550;12.138;2022-11-20T18:10:27;9.95;;;4.55;;
12181;SDS011;6154;51.550;12.138;2022-11-20T18:13:15;10.73;;;5.10;;
12181;SDS011;6154;51.550;12.138;2022-11-20T18:16:05;7.25;;;3.83;;
12181;SDS011;6154;51.550;12.138;2022-11-20T18:18:53;13.07;;;4.95;;
12181;SDS011;6154;51.550;12.138;2022-11-20T18:21:42;9.82;;;5.37;;
12181;SDS011;6154;51.550;12.138;2022-11-20T18:24:29;10.35;;;4.55;;
12181;SDS011;6154;51.550;12.138;2022-11-20T18:27:18;10.00;;;4.25;;
12181;SDS011;6154;51.550;12.138;2022-11-20T18:30:08;12.43;;;5.90;;
12181;SDS011;6154;51.550;12.138;2022-11-20T18:32:56;10.85;;;5.37;;
12181;SDS011;6154;51.550;12.138;2022-11-20T18:35:44;6.75;;;4.18;;
12181;SDS011;6154;51.550;12.138;2022-11-20T18:38:33;11.77;;;6.70;;
12181;SDS011;6154;51.550;12.138;2022-11-20T18:41:21;8.55;;;5.28;;
12181;SDS011;6154;51.550;12.138;2022-11-20T18:44:27;13.77;;;6.32;;
12181;SDS011;6154;51.550;12.138;2022-11-20T18:47:33;10.10;;;5.65;;
12181;SDS011;6154;51.550;12.138;2022-11-20T18:50:23;12.45;;;5.60;;
12181;SDS011;6154;51.550;12.138;2022-11-20T18:53:10;11.32;;;5.65;;
12181;SDS011;6154;51.550;12.138;2022-11-20T18:55:59;16.23;;;7.22;;
12181;SDS011;6154;51.550;12.138;2022-11-20T18:58:49;11.02;;;5.30;;
12181;SDS011;6154;51.550;12.138;2022-11-20T19:01:37;13.43;;;6.60;;
12181;SDS011;6154;51.550;12.138;2022-11-20T19:04:24;12.80;;;6.50;;
12181;SDS011;6154;51.550;12.138;2022-11-20T19:07:12;11.45;;;6.57;;
12181;SDS011;6154;51.550;12.138;2022-11-20T19:09:59;19.75;;;6.28;;
12181;SDS011;6154;51.550;12.138;2022-11-20T19:12:50;18.50;;;7.55;;
12181;SDS011;6154;51.550;12.138;2022-11-20T19:15:37;13.70;;;7.45;;
12181;SDS011;6154;51.550;12.138;2022-11-20T19:18:25;18.00;;;8.70;;
12181;SDS011;6154;51.550;12.138;2022-11-20T19:21:14;15.95;;;8.30;;
12181;SDS011;6154;51.550;12.138;2022-11-20T19:24:07;17.77;;;8.23;;
12181;SDS011;6154;51.550;12.138;2022-11-20T19:26:54;18.90;;;9.87;;
12181;SDS011;6154;51.550;12.138;2022-11-20T19:29:43;17.55;;;8.32;;
12181;SDS011;6154;51.550;12.138;2022-11-20T19:32:30;18.35;;;9.40;;
12181;SDS011;6154;51.550;12.138;2022-11-20T19:35:20;20.73;;;10.13;;
12181;SDS011;6154;51.550;12.138;2022-11-20T19:38:07;17.70;;;9.43;;
12181;SDS011;6154;51.550;12.138;2022-11-20T19:40:55;18.77;;;10.10;;
12181;SDS011;6154;51.550;12.138;2022-11-20T19:43:42;18.92;;;8.93;;
12181;SDS011;6154;51.550;12.138;2022-11-20T19:46:33;16.58;;;8.00;;
12181;SDS011;6154;51.550;12.138;2022-11-20T19:49:21;18.15;;;8.82;;
12181;SDS011;6154;51.550;12.138;2022-11-20T19:52:09;17.08;;;7.78;;
12181;SDS011;6154;51.550;12.138;2022-11-20T19:54:56;14.00;;;7.68;;
12181;SDS011;6154;51.550;12.138;2022-11-20T19:57:44;14.98;;;7.45;;
12181;SDS011;6154;51.550;12.138;2022-11-20T20:00:30;24.50;;;9.77;;
12181;SDS011;6154;51.550;12.138;2022-11-20T20:03:19;14.70;;;7.70;;
12181;SDS011;6154;51.550;12.138;2022-11-20T20:06:07;15.93;;;8.43;;
12181;SDS011;6154;51.550;12.138;2022-11-20T20:08:57;15.40;;;6.70;;
12181;SDS011;6154;51.550;12.138;2022-11-20T20:11:46;10.18;;;6.50;;
12181;SDS011;6154;51.550;12.138;2022-11-20T20:14:33;19.12;;;8.68;;
12181;SDS011;6154;51.550;12.138;2022-11-20T20:17:20;14.98;;;8.13;;
12181;SDS011;6154;51.550;12.138;2022-11-20T20:20:09;10.93;;;6.65;;
12181;SDS011;6154;51.550;12.138;2022-11-20T20:22:57;14.60;;;6.55;;
12181;SDS011;6154;51.550;12.138;2022-11-20T20:25:46;15.77;;;7.78;;
12181;SDS011;6154;51.550;12.138;2022-11-20T20:28:33;14.23;;;7.60;;
12181;SDS011;6154;51.550;12.138;2022-11-20T20:31:22;13.52;;;6.30;;
12181;SDS011;6154;51.550;12.138;2022-11-20T20:34:11;14.77;;;6.00;;
12181;SDS011;6154;51.550;12.138;2022-11-20T20:37:00;16.17;;;7.32;;
12181;SDS011;6154;51.550;12.138;2022-11-20T20:39:48;12.45;;;6.85;;
12181;SDS011;6154;51.550;12.138;2022-11-20T20:42:35;16.17;;;7.57;;
12181;SDS011;6154;51.550;12.138;2022-11-20T20:45:22;13.13;;;6.18;;
12181;SDS011;6154;51.550;12.138;2022-11-20T20:48:09;19.05;;;8.43;;
12181;SDS011;6154;51.550;12.138;2022-11-20T20:50:56;18.58;;;8.25;;
12181;SDS011;6154;51.550;12.138;2022-11-20T20:53:47;15.95;;;7.30;;
12181;SDS011;6154;51.550;12.138;2022-11-20T20:56:34;22.08;;;9.05;;
12181;SDS011;6154;51.550;12.138;2022-11-20T20:59:20;17.30;;;7.35;;
12181;SDS011;6154;51.550;12.138;2022-11-20T21:02:08;13.02;;;6.87;;
12181;SDS011;6154;51.550;12.138;2022-11-20T21:04:56;16.15;;;7.43;;
12181;SDS011;6154;51.550;12.138;2022-11-20T21:07:44;12.05;;;5.25;;
12181;SDS011;6154;51.550;12.138;2022-11-20T21:10:51;12.23;;;5.10;;
12181;SDS011;6154;51.550;12.138;2022-11-20T21:13:39;7.18;;;5.22;;
12181;SDS011;6154;51.550;12.138;2022-11-20T21:16:28;10.75;;;4.80;;
12181;SDS011;6154;51.550;12.138;2022-11-20T21:19:25;11.10;;;5.78;;
12181;SDS011;6154;51.550;12.138;2022-11-20T21:22:12;11.85;;;6.12;;
12181;SDS011;6154;51.550;12.138;2022-11-20T21:24:58;9.18;;;5.45;;
12181;SDS011;6154;51.550;12.138;2022-11-20T21:27:46;9.10;;;5.25;;
12181;SDS011;6154;51.550;12.138;2022-11-20T21:30:33;12.15;;;4.60;;
12181;SDS011;6154;51.550;12.138;2022-11-20T21:33:20;9.10;;;5.00;;
12181;SDS011;6154;51.550;12.138;2022-11-20T21:36:08;8.95;;;5.15;;
12181;SDS011;6154;51.550;12.138;2022-11-20T21:38:57;13.68;;;4.37;;
12181;SDS011;6154;51.550;12.138;2022-11-20T21:41:44;7.87;;;4.97;;